Freeport, Kansas
Current Conditions -  °F | °C
As of 5:19 PM on Wednesday 17 Dec 2014 (Local Time) from KICT Reporting Station
Light Snow Light Snow  
Wind Chill: 26°   Ceiling: 700
Heat Index: 32°   Visibility: 1mi
Dew Point: 29°   Wind: 6mph
Humidity: 88%   Direction: 100°E
Pressure: 30.17"   Gusts: NA
Location:  37.2°N, 97.86°W
Report Text: KICT 172319Z 10005KT 1SM R01L/5500VP6000FT -SN BR BKN007 BKN021 OVC029 00/M02 A3017 RMK AO2 SFC VIS 1 1/4 P0002 T00001017 $
Loading
Personal Weather Stations






























Interactive Weather Map New forecast layout! Learn more

10-Day Weather Forecast

Advertisements
Track Severe Weather on mobile